Gaz Palmyra — 3FCO4 — position and weather

sailwx.info

Track history (hours):
 
Tides and Currents Weather Stations Pressure Air Temp Water Temp Dewpoint Dewpoint Depression Visibility Wind Speed Wind Dir Waves Ship Positions

Gaz Palmyra

Last reported at 2016-May-27 02:28 UTC. Time now 2016-May-27 22:04 UTC.
Position N 36°55' E 002°31'.

Length 137 m; draft 8.2 m.

Type: Ship (hazmat cat C). MMSI: 353247000.

Date/timePositionNaut miles runAvg speedWind from/ knotsBaromVisibWave heightAir tempDewpointWater temp
2016-May-27 02:28N 36°55' E 002°31'9 9.4
2016-May-27 01:30N 36°53' E 002°20'10 9.6
2016-May-27 00:26N 36°52' E 002°07'8 9.5
2016-May-26 23:33N 36°51' E 001°57'123 3.4
2016-May-25 11:32N 35°51' W 000°16'7 0.4
2016-May-24 18:14N 35°56' W 000°10'9 0.8
2016-May-24 06:24N 36°04' W 000°07'9 9.8
2016-May-24 05:26N 36°09' E 000°04'9 9.5
2016-May-24 04:32N 36°14' E 000°12'10 9.7
2016-May-24 03:33N 36°21' E 000°20'10 9.7
2016-May-24 02:33N 36°28' E 000°28'10 9.7
2016-May-24 01:34N 36°34' E 000°38'118 3.3
2016-May-22 13:33N 36°46' E 003°05'2 1.9
2016-May-22 12:33N 36°46' E 003°07'0 0.1
2016-May-22 11:33N 36°46' E 003°07'0 0.0
2016-May-22 10:33N 36°46' E 003°07'0 0.0
2016-May-22 09:24N 36°46' E 003°07'0 0.1
2016-May-22 08:30N 36°46' E 003°07'0 0.0
2016-May-21 20:12N 36°46' E 003°06'0 0.0
2016-May-21 19:15N 36°46' E 003°06'0 0.0
2016-May-21 18:15N 36°46' E 003°06'0 0.0
2016-May-21 17:18N 36°46' E 003°06'0 0.0
2016-May-21 16:30N 36°46' E 003°06'0 0.0
2016-May-21 15:33N 36°46' E 003°06'0 0.0
2016-May-21 14:33N 36°46' E 003°06'0 0.0
2016-May-21 13:33N 36°46' E 003°06'0 0.0
2016-May-21 12:33N 36°46' E 003°06'0 0.0
2016-May-21 11:21N 36°46' E 003°06'  
2016-May-17 20:09N 36°52' E 002°10'10 9.2
2016-May-17 19:06N 36°51' E 001°58'5 9.4
2016-May-17 18:33N 36°51' E 001°51'9 9.5
2016-May-17 17:33N 36°49' E 001°40'10 9.6
2016-May-17 16:33N 36°48' E 001°28'10 9.6
2016-May-17 15:33N 36°47' E 001°16'9 9.2
2016-May-17 14:33N 36°45' E 001°05'9 8.8
2016-May-17 13:33N 36°42' E 000°54'9 9.2
2016-May-17 12:32N 36°37' E 000°45'9 9.1
2016-May-17 11:33N 36°32' E 000°35'9 9.0
2016-May-17 10:34N 36°27' E 000°27'1010.2
2016-May-17 09:33N 36°19' E 000°18'20 9.9
2016-May-17 07:33N 36°06' E 000°00'9 9.1
2016-May-17 06:33N 35°58' W 000°06'  
Track history (hours):
 
Tides and Currents Weather Stations Pressure Air Temp Water Temp Dewpoint Dewpoint Depression Visibility Wind Speed Wind Dir Waves Ship Positions

Gaz Palmyra

Last reported at 2016-May-27 02:28 UTC. Time now 2016-May-27 22:04 UTC.
Position N 36°55' E 002°31'.

Length 137 m; draft 8.2 m.

Type: Ship (hazmat cat C). MMSI: 353247000.

Date/timePositionNaut miles runAvg speedWind from/ knotsBaromVisibWave heightAir tempDewpointWater temp
2016-May-27 02:28N 36°55' E 002°31'9 9.4
2016-May-27 01:30N 36°53' E 002°20'10 9.6
2016-May-27 00:26N 36°52' E 002°07'8 9.5
2016-May-26 23:33N 36°51' E 001°57'123 3.4
2016-May-25 11:32N 35°51' W 000°16'7 0.4
2016-May-24 18:14N 35°56' W 000°10'9 0.8
2016-May-24 06:24N 36°04' W 000°07'9 9.8
2016-May-24 05:26N 36°09' E 000°04'9 9.5
2016-May-24 04:32N 36°14' E 000°12'10 9.7
2016-May-24 03:33N 36°21' E 000°20'10 9.7
2016-May-24 02:33N 36°28' E 000°28'10 9.7
2016-May-24 01:34N 36°34' E 000°38'118 3.3
2016-May-22 13:33N 36°46' E 003°05'2 1.9
2016-May-22 12:33N 36°46' E 003°07'0 0.1
2016-May-22 11:33N 36°46' E 003°07'0 0.0
2016-May-22 10:33N 36°46' E 003°07'0 0.0
2016-May-22 09:24N 36°46' E 003°07'0 0.1
2016-May-22 08:30N 36°46' E 003°07'0 0.0
2016-May-21 20:12N 36°46' E 003°06'0 0.0
2016-May-21 19:15N 36°46' E 003°06'0 0.0
2016-May-21 18:15N 36°46' E 003°06'0 0.0
2016-May-21 17:18N 36°46' E 003°06'0 0.0
2016-May-21 16:30N 36°46' E 003°06'0 0.0
2016-May-21 15:33N 36°46' E 003°06'0 0.0
2016-May-21 14:33N 36°46' E 003°06'0 0.0
2016-May-21 13:33N 36°46' E 003°06'0 0.0
2016-May-21 12:33N 36°46' E 003°06'0 0.0
2016-May-21 11:21N 36°46' E 003°06'  
2016-May-17 20:09N 36°52' E 002°10'10 9.2
2016-May-17 19:06N 36°51' E 001°58'5 9.4
2016-May-17 18:33N 36°51' E 001°51'9 9.5
2016-May-17 17:33N 36°49' E 001°40'10 9.6
2016-May-17 16:33N 36°48' E 001°28'10 9.6
2016-May-17 15:33N 36°47' E 001°16'9 9.2
2016-May-17 14:33N 36°45' E 001°05'9 8.8
2016-May-17 13:33N 36°42' E 000°54'9 9.2
2016-May-17 12:32N 36°37' E 000°45'9 9.1
2016-May-17 11:33N 36°32' E 000°35'9 9.0
2016-May-17 10:34N 36°27' E 000°27'1010.2
2016-May-17 09:33N 36°19' E 000°18'20 9.9
2016-May-17 07:33N 36°06' E 000°00'9 9.1
2016-May-17 06:33N 35°58' W 000°06'  

Dump ship's entire track history